Record high temperature 107.1°F Record low temperature 10.6°F Record high gust 49.5 mph Record high average 23.3 mph Record daily rain 11.65 in. Record low windchill 2.7°F Record high barometer 30.818 in. Record low barometer 29.117 in.
Daily high pressure 30.064 in. Daily low pressure 29.980 in. Daily low windchill 54.5°F Daily high heat index 76.2°F Daily high gust speed 10.4 mph SSW Daily high average speed 5.6 mph S
On the Greenway Weather data
LAST READING AT TIME: 5:19 PM DATE: August 30 2016, time of next update: 5:20 pm
Current WeatherOvercast/Dry Current Temperature 75.9°F (24.4°C) (Heat Index 78.1°F ), Apparent temp 77.9°F , Apparent temp solar 77.9 °F
Maximum Temperature (since midnight)76.2°F at: 5:12 PM Minimum Temperature (since midnight)54.5°F at: 5:27 AM
Average windspeed (ten minute)2.6 mph Wind Direction (ten minute)SSW (204°)
Heat Index 78.1°F Maximum Gust (last hour)10.0 mph at: 4:22PM
Maximum Gust (since midnight)10.4 mph at: 3:48 PM Maximum 1 minute average (since midnight)5.6 mph at: 5:16 PM
Rainfall (last hour)0.00 in. (0.0 mm) Rainfall (since midnight)0.00 in. (0.0 mm) ---
Rainfall This month 0.02 in. (0.5 mm) Rainfall To date this year 51.75 in. (1314.4 mm)
Maximum rain per minute (last hour)0.00 in/min Maximum rain per hour (last 6 hours)0.00 in/hour
Yesterdays rainfall 0.00 in DewPoint 55.9°F (Wet Bulb :64.2°F )
Humidity 50 %, Humidex 81.2°F Barometer corrected to msl29.981 in. (1015.3 hPa)
Pressure change -0.02 in. (last hour) Trend (last hour)STEADY
Pressure change (last 12 hours)-0.07 in Pressure change (last 6 hours)-0.07 in
Current Indoor Temp. 86.3°F
Current Indoor Hum. 31%
Current Solar 0 W/Mē
Maximum solar (since midnight) 1081 W/Mē Minimum solar (since midnight)0 W/Mē
Current 00:00 hours of sunshine today, current sky: Overcast
Sunshine hours for the year: 00:00 hrs Sunshine hours for the month: 00:00 hrs
Current evapotranspiration 0.03 inches per day. Yesterday's reading 0.04

This page is updated from recent data collected by a DAVIS VANTAGE PRO weather station Use the Reload or Refresh facility on your browser to retrieve the latest data.


Click here for the last 24 hour graph
Click here for the last 48 hour graph
Click here for the last 72 hour graph
Click here for the month to date graph


Weather report/warning/Metars

Expires:201608310515;;710180
FPUS56 KPQR 302143
ZFPPQR

ZONE FORECASTS FOR NORTHWEST OREGON AND SOUTHWEST WASHINGTON
NATIONAL WEATHER SERVICE PORTLAND OREGON
243 PM PDT TUE AUG 30 2016

SPOT TEMPERATURES ARE FOR TONIGHT...WEDNESDAY...WEDNESDAY NIGHT...
THURSDAY...THURSDAY NIGHT...AND FRIDAY.


ORZ006-WAZ039-310515-
GREATER PORTLAND METRO AREA-GREATER VANCOUVER AREA-
INCLUDING THE CITIES OF...HILLSBORO...PORTLAND...WILSONVILLE...
OREGON CITY...GRESHAM...TROUTDALE...VANCOUVER...BATTLE GROUND...
RIDGEFIELD...WASHOUGAL...YACOLT...AMBOY
243 PM PDT TUE AUG 30 2016

.TONIGHT...PARTLY CLOUDY. A 20 PERCENT CHANCE OF RAIN AFTER
MIDNIGHT. LOWS AROUND 55. SOUTHWEST WIND 5 TO 10 MPH. 
.WEDNESDAY...CLOUDY. CHANCE OF RAIN IN THE MORNING...THEN A CHANCE
OF SHOWERS IN THE AFTERNOON. HIGHS AROUND 70. SOUTH WIND 5 TO
10 MPH. CHANCE OF PRECIPITATION 50 PERCENT. RAINFALL AMOUNTS LESS
THAN A TENTH OF AN INCH. 
.WEDNESDAY NIGHT...MOSTLY CLOUDY. CHANCE OF SHOWERS IN THE EVENING...
THEN A SLIGHT CHANCE OF SHOWERS AFTER MIDNIGHT. LOWS AROUND 55.
SOUTHWEST WIND 5 TO 10 MPH. CHANCE OF PRECIPITATION 40 PERCENT.
RAINFALL AMOUNTS LESS THAN A TENTH OF AN INCH. 
.THURSDAY...MOSTLY CLOUDY. SLIGHT CHANCE OF SHOWERS IN THE MORNING...
THEN A CHANCE OF SHOWERS IN THE AFTERNOON. HIGHS 65 TO 70. SOUTHWEST
WIND 5 TO 10 MPH. CHANCE OF PRECIPITATION 40 PERCENT. 
.THURSDAY NIGHT...CLOUDY WITH A 50 PERCENT CHANCE OF SHOWERS. LOWS
50 TO 55. SOUTHWEST WIND 5 TO 10 MPH SHIFTING TO THE SOUTH AFTER
MIDNIGHT. 
.FRIDAY...CLOUDY WITH A 50 PERCENT CHANCE OF SHOWERS. HIGHS AROUND
65. 
.FRIDAY NIGHT...MOSTLY CLOUDY. CHANCE OF SHOWERS IN THE EVENING...
THEN A SLIGHT CHANCE OF SHOWERS AFTER MIDNIGHT. LOWS 45 TO 50.
CHANCE OF PRECIPITATION 50 PERCENT. 
.SATURDAY...PARTLY SUNNY. A 20 PERCENT CHANCE OF SHOWERS IN THE
MORNING. HIGHS 65 TO 70. 
.SATURDAY NIGHT...PARTLY CLOUDY. LOWS 45 TO 50. 
.SUNDAY...PARTLY CLOUDY. HIGHS AROUND 70. 
.SUNDAY NIGHT...PARTLY CLOUDY. LOWS AROUND 50. 
.LABOR DAY...PARTLY CLOUDY. HIGHS AROUND 75. 
.MONDAY NIGHT...PARTLY CLOUDY IN THE EVENING...THEN MOSTLY CLOUDY.
LOWS 50 TO 55. 
.TUESDAY...PARTLY SUNNY. HIGHS 70 TO 75. 

&&
                    TEMPERATURE           
PORTLAND          59  71  57  69  56  67
HILLSBORO         55  71  55  69  54  67

$$
=


PORTLAND-HILLSBORO AIRPORT, OR, United States (KHIO) 45-33N 122-57W 68M
Aug 30, 2016 - 07:53 PM EDT / 2016.08.30 2353 UTC
Wind: Calm:0
Visibility: 10 mile(s):0
Sky conditions: mostly cloudy
Temperature: 73.0 F (22.8 C)
Dew Point: 52.0 F (11.1 C)
Relative Humidity: 47%
Pressure (altimeter): 30 in. Hg (1015 hPa)
Pressure tendency: 0.04 inches (1.2 hPa) lower than three hours ago
ob: KHIO 302353Z 00000KT 10SM BKN047 23/11 A3000 RMK AO2 SLP155 T02280111 10228 20161 56012
cycle: 0
PORTLAND INTERNATIONAL  AIRPORT, OR, United States (KPDX) 45-35N 122-36W 7M
Aug 30, 2016 - 07:53 PM EDT / 2016.08.30 2353 UTC
Wind: from the ENE (070 degrees) at 8 MPH (7 KT):0
Visibility: 10 mile(s):0
Sky conditions: mostly clear
Temperature: 72.0 F (22.2 C)
Dew Point: 51.1 F (10.6 C)
Relative Humidity: 47%
Pressure (altimeter): 30.01 in. Hg (1016 hPa)
Pressure tendency: 0.04 inches (1.3 hPa) lower than three hours ago
ob: KPDX 302353Z 07007KT 10SM FEW050 FEW090 FEW250 22/11 A3001 RMK AO2 SLP161 T02220106 10222 20167 56013
cycle: 0
PORTLAND-TROUTDALE AIRPORT, OR, United States (KTTD) 45-33N 122-25W 14M
Aug 30, 2016 - 07:53 PM EDT / 2016.08.30 2353 UTC
Wind: Calm:0
Visibility: 10 mile(s):0
Sky conditions: clear
Temperature: 71.1 F (21.7 C)
Dew Point: 51.1 F (10.6 C)
Relative Humidity: 49%
Pressure (altimeter): 30.01 in. Hg (1016 hPa)
Pressure tendency: 0.03 inches (1.0 hPa) lower than three hours ago
ob: KTTD 302353Z 00000KT 10SM CLR 22/11 A3001 RMK AO2 SLP162 T02170106 10222 20167 58010
cycle: 0
MCMINNVILLE MUNICIPAL AIRPORT , OR, United States (KMMV) 45-12N 123-08W 48M
Aug 30, 2016 - 07:53 PM EDT / 2016.08.30 2353 UTC
Wind: Variable at 7 MPH (6 KT):0
Visibility: 10 mile(s):0
Sky conditions: mostly cloudy
Temperature: 73.9 F (23.3 C)
Dew Point: 52.0 F (11.1 C)
Relative Humidity: 46%
Pressure (altimeter): 30 in. Hg (1015 hPa)
Pressure tendency: 0.03 inches (1.0 hPa) lower than three hours ago
ob: KMMV 302353Z AUTO VRB06KT 10SM BKN046 23/11 A3000 RMK AO2 SLP158 T02330111 10233 20178 58010
cycle: 0
SALEM MCNARY FIELD, OR, United States (KSLE) 44-54N 123-00W 59M
Aug 30, 2016 - 07:56 PM EDT / 2016.08.30 2356 UTC
Wind: from the WSW (250 degrees) at 10 MPH (9 KT):0
Visibility: 10 mile(s):0
Sky conditions: partly cloudy
Temperature: 73.9 F (23.3 C)
Dew Point: 50.0 F (10.0 C)
Relative Humidity: 42%
Pressure (altimeter): 30 in. Hg (1015 hPa)
Pressure tendency: 0.02 inches (0.8 hPa) lower than three hours ago
ob: KSLE 302356Z 25009KT 10SM SCT047 23/10 A3000 RMK AO2 SLP156 T02330100 10239 20178 57008
cycle: 0
REDMOND ROBERTS FIELD, OR, United States (KRDM) 44-15N 121-08W
Aug 30, 2016 - 07:56 PM EDT / 2016.08.30 2356 UTC
Wind: from the NW (320 degrees) at 8 MPH (7 KT) (direction variable):0
Visibility: 10 mile(s):0
Sky conditions: clear
Temperature: 79.0 F (26.1 C)
Dew Point: 35.1 F (1.7 C)
Relative Humidity: 20%
Pressure (altimeter): 29.97 in. Hg (1014 hPa)
Pressure tendency: 0.01 inches (0.5 hPa) lower than three hours ago
ob: KRDM 302356Z 32007KT 280V340 10SM CLR 26/02 A2997 RMK AO2 SLP123 60000 T02610017 10267 20211 58005
cycle: 0

Date: 8/30/2016
Sunrise at:
06:30 am

Sunset at:
07:53 pm

Moonrise at:
04:43 am 08/30/16

Moonset at:
06:17 pm 08/29/16

First Quarter  August 10 2016
Full moon  August 18 2016
Last QuarterAugust 25 2016
New moon September 1 2016
Moon age: 27 days,12 hours,2 minutes,5%
Hours of possible daylight today was 13:23:00



Use the RELOAD facility on your browser to retrieve the latest data.

Click here for current Fire weather info
Click here for the daily CLIMATOLOGICAL SUMMARY
Click here for a daily update of the averages/extremes to date for the month




Created by "Weather Display" software version 10.37R at this start time/date 5:41:50 PM 8/20/2016




On The Greenway Weather Web Site

 
 
HELP US OUT
Help us keep this weather station on the web. for the Tigard / Portland internet users to use. If you would like to help, click the donate button below
 
This site is purely funded by donations and by myself (Ray Cooper)
Anything you can do will help keep this station on the net
Average cost per year is $665 to publish and host this site excluding the cost of the weather equipment
Buyastrostuff.com is kind enough to host our DNS and email at no cost.
THANKS GUYS & Gals for helping
Have a Question,or just want to talk. Contact me at:
Ray Cooper @ Buyastrostuff.com
 

Weather Underground PWS KORTIGAR12 Weather Underground PWS KORTIGAR12